createdAt,value
2019-02-25T00:03:51.769Z,95.90
2019-02-25T00:07:57.211Z,96.70
2019-02-25T00:12:02.680Z,96.10
2019-02-25T00:16:09.528Z,96.30
2019-02-25T00:20:15.102Z,96.00
2019-02-25T00:24:20.453Z,96.60
2019-02-25T00:28:25.891Z,96.50
2019-02-25T00:32:31.336Z,96.30
2019-02-25T00:36:36.834Z,96.80
2019-02-25T00:40:42.349Z,97.10
2019-02-25T00:44:47.845Z,97.30
2019-02-25T00:48:53.275Z,97.20
2019-02-25T00:52:58.902Z,97.80
2019-02-25T00:57:04.346Z,97.80
2019-02-25T01:01:09.786Z,98.40
2019-02-25T01:05:16.445Z,97.90
2019-02-25T01:09:21.895Z,97.90
2019-02-25T01:13:27.349Z,98.10
2019-02-25T01:17:32.735Z,97.80
2019-02-25T01:21:38.581Z,97.20
2019-02-25T01:25:44.099Z,97.70
2019-02-25T01:29:49.852Z,97.00
2019-02-25T01:33:55.655Z,97.00
2019-02-25T01:38:01.215Z,96.50
2019-02-25T01:42:06.774Z,97.40
2019-02-25T01:46:12.167Z,96.90
2019-02-25T01:50:17.673Z,97.40
2019-02-25T01:54:23.118Z,98.10
2019-02-25T01:58:28.559Z,98.10
2019-02-25T02:02:33.870Z,98.20
2019-02-25T02:06:39.601Z,98.40
2019-02-25T02:10:45.111Z,98.60
2019-02-25T02:14:50.634Z,99.30
2019-02-25T02:18:55.855Z,99.40
2019-02-25T02:23:01.604Z,99.80
2019-02-25T02:27:07.491Z,99.90
2019-02-25T02:31:12.910Z,98.90
2019-02-25T02:35:18.965Z,99.10
2019-02-25T02:39:24.547Z,98.80
2019-02-25T02:43:30.099Z,99.40
2019-02-25T02:48:04.455Z,99.60
2019-02-25T02:52:10.192Z,99.60
2019-02-25T02:56:15.632Z,99.20
2019-02-25T03:00:21.308Z,98.80
2019-02-25T03:04:26.666Z,99.00
2019-02-25T03:08:32.396Z,98.70
2019-02-25T03:12:38.139Z,99.10
2019-02-25T03:16:43.803Z,98.70
2019-02-25T03:20:49.552Z,98.60
2019-02-25T03:24:55.057Z,98.90
2019-02-25T03:29:00.568Z,99.00
2019-02-25T03:33:06.059Z,98.90
2019-02-25T03:37:11.712Z,99.50
2019-02-25T03:41:17.198Z,99.60
2019-02-25T03:45:23.034Z,99.90
2019-02-25T03:49:28.412Z,99.90
2019-02-25T03:53:34.129Z,99.80
2019-02-25T03:57:40.226Z,99.90
2019-02-25T04:01:45.683Z,99.90
2019-02-25T04:05:51.118Z,99.90
2019-02-25T04:09:56.914Z,99.90
2019-02-25T04:14:02.334Z,99.90
2019-02-25T04:18:07.928Z,99.90
2019-02-25T04:22:13.353Z,99.90
2019-02-25T04:26:18.991Z,99.90
2019-02-25T04:30:24.454Z,99.90
2019-02-25T04:34:29.963Z,99.90
2019-02-25T04:38:35.408Z,99.90
2019-02-25T04:42:41.145Z,99.90
2019-02-25T04:46:46.694Z,99.90
2019-02-25T04:50:52.404Z,99.90
2019-02-25T04:54:57.931Z,99.90
2019-02-25T04:59:03.349Z,99.90
2019-02-25T05:03:09.209Z,99.90
2019-02-25T05:07:14.672Z,99.90
2019-02-25T05:11:21.797Z,99.90
2019-02-25T05:15:27.938Z,99.90
2019-02-25T05:19:33.698Z,99.90
2019-02-25T05:23:39.424Z,99.90
2019-02-25T05:27:44.934Z,99.90
2019-02-25T05:31:50.416Z,99.90
2019-02-25T05:35:55.876Z,99.90
2019-02-25T05:40:01.318Z,99.90
2019-02-25T05:44:08.558Z,99.90
2019-02-25T05:48:14.667Z,99.40
2019-02-25T05:52:20.211Z,99.30
2019-02-25T05:56:25.826Z,99.20
2019-02-25T06:00:32.235Z,99.20
2019-02-25T06:04:37.811Z,98.90
2019-02-25T06:08:43.251Z,99.90
2019-02-25T06:12:48.695Z,99.70
2019-02-25T06:16:54.416Z,99.80
2019-02-25T06:21:01.904Z,99.30
2019-02-25T06:25:08.084Z,98.70
2019-02-25T06:29:13.654Z,97.90
2019-02-25T06:33:19.194Z,97.90
2019-02-25T06:37:25.201Z,97.20
2019-02-25T06:41:30.801Z,96.00
2019-02-25T06:45:36.392Z,96.60
2019-02-25T06:49:42.479Z,96.50
2019-02-25T06:53:47.965Z,96.80
2019-02-25T06:57:53.728Z,95.90
2019-02-25T07:01:59.097Z,96.50
2019-02-25T07:06:24.544Z,97.10
2019-02-25T07:10:52.429Z,96.80
2019-02-25T07:15:04.879Z,97.60
2019-02-25T07:19:30.281Z,96.70
2019-02-25T07:24:01.154Z,96.60
2019-02-25T07:28:24.494Z,96.00
2019-02-25T07:32:59.543Z,93.40
2019-02-25T07:37:30.047Z,92.30
2019-02-25T07:41:44.793Z,91.50
2019-02-25T07:46:07.809Z,85.70
2019-02-25T07:50:47.209Z,84.80
2019-02-25T07:55:19.574Z,85.70
2019-02-25T07:59:43.866Z,81.80
2019-02-25T08:03:55.127Z,79.50
2019-02-25T08:08:12.175Z,71.10
2019-02-25T08:12:23.357Z,75.00
2019-02-25T08:16:56.885Z,74.50
2019-02-25T08:21:13.426Z,70.20
2019-02-25T08:25:47.645Z,65.40
2019-02-25T08:30:09.346Z,67.70
2019-02-25T08:34:34.198Z,62.00
2019-02-25T08:38:52.197Z,60.80
2019-02-25T08:43:10.466Z,58.80
2019-02-25T08:47:20.403Z,59.20
2019-02-25T08:51:26.969Z,63.00
2019-02-25T08:55:32.789Z,58.30
2019-02-25T08:59:38.512Z,62.20
2019-02-25T09:03:45.026Z,62.30
2019-02-25T09:07:50.464Z,55.20
2019-02-25T09:11:56.031Z,60.70
2019-02-25T09:16:01.523Z,53.80
2019-02-25T09:20:07.016Z,55.40
2019-02-25T09:24:12.437Z,49.10
2019-02-25T09:28:17.885Z,49.70
2019-02-25T09:32:23.338Z,52.80
2019-02-25T09:36:28.776Z,48.50
2019-02-25T09:40:34.234Z,47.00
2019-02-25T09:44:39.579Z,51.40
2019-02-25T09:48:45.317Z,50.10
2019-02-25T09:52:51.016Z,46.00
2019-02-25T09:56:56.750Z,49.40
2019-02-25T10:01:02.479Z,43.80
2019-02-25T10:05:08.519Z,44.10
2019-02-25T10:09:13.971Z,43.50
2019-02-25T10:13:19.842Z,40.40
2019-02-25T10:17:25.274Z,44.50
2019-02-25T10:21:31.011Z,44.00
2019-02-25T10:25:36.755Z,44.90
2019-02-25T10:29:42.077Z,49.30
2019-02-25T10:33:50.928Z,39.40
2019-02-25T10:37:56.719Z,39.40
2019-02-25T10:42:02.307Z,41.40
2019-02-25T10:46:09.514Z,39.50
2019-02-25T10:50:15.138Z,49.20
2019-02-25T10:54:21.262Z,42.50
2019-02-25T10:58:30.720Z,42.70
2019-02-25T11:02:43.878Z,41.20
2019-02-25T11:06:42.281Z,42.30
2019-02-25T11:11:06.648Z,40.00
2019-02-25T11:15:13.838Z,40.20
2019-02-25T11:19:19.746Z,39.70
2019-02-25T11:23:25.264Z,41.10
2019-02-25T11:27:33.073Z,39.90
2019-02-25T11:31:38.281Z,41.10
2019-02-25T11:35:45.808Z,39.30
2019-02-25T11:39:52.595Z,39.70
2019-02-25T11:43:58.683Z,37.20
2019-02-25T11:48:04.183Z,38.60
2019-02-25T11:52:09.873Z,40.90
2019-02-25T11:56:15.500Z,38.40
2019-02-25T12:00:22.344Z,38.40
2019-02-25T12:04:28.143Z,41.50
2019-02-25T12:08:33.546Z,38.00
2019-02-25T12:12:38.993Z,35.50
2019-02-25T12:16:44.729Z,37.30
2019-02-25T12:20:50.196Z,35.50
2019-02-25T12:24:55.592Z,40.20
2019-02-25T12:29:10.374Z,37.50
2019-02-25T12:33:08.499Z,34.50
2019-02-25T12:37:13.964Z,36.60
2019-02-25T12:41:19.863Z,33.90
2019-02-25T12:45:25.319Z,34.70
2019-02-25T12:49:31.223Z,36.20
2019-02-25T12:53:37.885Z,32.70
2019-02-25T12:57:43.398Z,35.10
2019-02-25T13:01:49.000Z,37.30
2019-02-25T13:05:54.653Z,34.30
2019-02-25T13:10:00.304Z,28.50
2019-02-25T13:14:05.825Z,32.20
2019-02-25T13:18:11.244Z,30.10
2019-02-25T13:22:16.626Z,30.90
2019-02-25T13:26:22.367Z,32.10
2019-02-25T13:30:27.867Z,32.40
2019-02-25T13:34:33.269Z,33.10
2019-02-25T13:38:38.987Z,33.70
2019-02-25T13:42:44.489Z,33.60
2019-02-25T13:46:50.060Z,33.00
2019-02-25T13:50:55.565Z,36.00
2019-02-25T13:55:01.154Z,34.40
2019-02-25T13:59:07.206Z,33.70
2019-02-25T14:03:12.973Z,35.40
2019-02-25T14:07:18.508Z,32.30
2019-02-25T14:11:23.872Z,34.10
2019-02-25T14:15:29.330Z,35.50
2019-02-25T14:19:34.754Z,34.60
2019-02-25T14:23:40.668Z,32.80
2019-02-25T14:27:46.127Z,35.30
2019-02-25T14:31:52.480Z,31.80
2019-02-25T14:35:58.223Z,34.10
2019-02-25T14:40:05.978Z,32.00
2019-02-25T14:44:11.302Z,32.40
2019-02-25T14:48:20.429Z,31.30
2019-02-25T14:52:26.733Z,31.00
2019-02-25T14:56:31.661Z,33.10
2019-02-25T15:00:38.228Z,32.90
2019-02-25T15:04:43.982Z,29.10
2019-02-25T15:08:49.386Z,30.10
2019-02-25T15:12:58.814Z,29.70
2019-02-25T15:17:03.868Z,29.30
2019-02-25T15:21:11.226Z,36.10
2019-02-25T15:25:17.352Z,36.60
2019-02-25T15:29:23.119Z,32.90
2019-02-25T15:33:30.016Z,29.20
2019-02-25T15:37:36.504Z,29.90
2019-02-25T15:41:43.967Z,34.90
2019-02-25T15:45:49.132Z,31.60
2019-02-25T15:49:59.752Z,35.80
2019-02-25T15:54:02.922Z,38.50
2019-02-25T15:58:08.771Z,36.00
2019-02-25T16:02:14.528Z,34.80
2019-02-25T16:06:19.982Z,38.40
2019-02-25T16:10:25.551Z,40.10
2019-02-25T16:14:31.010Z,43.80
2019-02-25T16:18:36.573Z,45.20
2019-02-25T16:22:42.654Z,41.60
2019-02-25T16:26:48.857Z,45.40
2019-02-25T16:30:54.435Z,43.30
2019-02-25T16:35:00.274Z,42.40
2019-02-25T16:39:09.634Z,48.60
2019-02-25T16:43:15.623Z,50.50
2019-02-25T16:47:31.911Z,47.30
2019-02-25T16:51:30.235Z,51.30
2019-02-25T16:55:35.773Z,50.40
2019-02-25T16:59:41.269Z,55.60
2019-02-25T17:03:48.215Z,52.30
2019-02-25T17:07:55.989Z,55.40
2019-02-25T17:12:02.871Z,53.60
2019-02-25T17:16:17.883Z,57.20
2019-02-25T17:20:16.765Z,57.90
2019-02-25T17:24:24.009Z,62.30
2019-02-25T17:28:29.588Z,60.60
2019-02-25T17:32:35.055Z,62.80
2019-02-25T17:36:40.476Z,64.80
2019-02-25T17:40:45.907Z,64.20
2019-02-25T17:44:53.314Z,64.70
2019-02-25T17:48:58.707Z,68.10
2019-02-25T17:53:05.124Z,70.50
2019-02-25T17:57:13.676Z,70.40
2019-02-25T18:01:21.007Z,71.60
2019-02-25T18:05:26.769Z,72.30
2019-02-25T18:09:32.310Z,74.90
2019-02-25T18:13:38.095Z,75.60
2019-02-25T18:17:44.870Z,77.50
2019-02-25T18:21:51.151Z,78.50
2019-02-25T18:25:58.687Z,80.50
2019-02-25T18:30:05.415Z,83.90
2019-02-25T18:34:12.924Z,82.20
2019-02-25T18:38:18.894Z,82.10
2019-02-25T18:42:24.387Z,84.40
2019-02-25T18:46:30.477Z,86.10
2019-02-25T18:50:36.341Z,86.60
2019-02-25T18:54:43.370Z,86.00
2019-02-25T18:58:49.512Z,86.90
2019-02-25T19:02:56.173Z,88.50
2019-02-25T19:07:03.664Z,87.80
2019-02-25T19:11:13.043Z,89.10
2019-02-25T19:15:17.608Z,90.40
2019-02-25T19:19:23.337Z,89.80
2019-02-25T19:23:31.270Z,90.00
2019-02-25T19:27:36.513Z,88.40
2019-02-25T19:31:42.925Z,90.30
2019-02-25T19:35:48.599Z,90.30
2019-02-25T19:39:54.163Z,90.80
2019-02-25T19:44:03.287Z,91.30
2019-02-25T19:48:07.279Z,91.60
2019-02-25T19:52:14.437Z,91.40
2019-02-25T19:56:20.871Z,91.60
2019-02-25T20:00:28.271Z,92.00
2019-02-25T20:04:35.976Z,91.90
2019-02-25T20:08:42.100Z,92.30
2019-02-25T20:12:53.125Z,92.80
2019-02-25T20:16:59.437Z,92.30
2019-02-25T20:21:06.461Z,92.30
2019-02-25T20:25:14.471Z,92.50
2019-02-25T20:29:19.891Z,92.90
2019-02-25T20:33:30.460Z,94.20
2019-02-25T20:37:33.889Z,93.60
2019-02-25T20:41:40.064Z,94.50
2019-02-25T20:45:45.503Z,94.20
2019-02-25T20:49:53.698Z,93.70
2019-02-25T20:53:59.778Z,93.70
2019-02-25T20:58:05.329Z,94.90
2019-02-25T21:02:15.805Z,95.00
2019-02-25T21:06:21.095Z,95.30
2019-02-25T21:10:32.756Z,95.40
2019-02-25T21:14:42.714Z,95.40
2019-02-25T21:18:52.925Z,96.10
2019-02-25T21:23:02.851Z,95.80
2019-02-25T21:27:06.425Z,96.00
2019-02-25T21:31:16.196Z,96.80
2019-02-25T21:35:23.534Z,96.10
2019-02-25T21:39:27.943Z,96.70
2019-02-25T21:43:35.468Z,96.80
2019-02-25T21:47:41.023Z,96.80
2019-02-25T21:51:48.015Z,97.70
2019-02-25T21:55:55.379Z,97.10
2019-02-25T22:00:02.987Z,97.40
2019-02-25T22:04:12.970Z,97.90
2019-02-25T22:08:26.691Z,97.40
2019-02-25T22:12:33.191Z,97.90
2019-02-25T22:16:44.007Z,97.90
2019-02-25T22:20:49.225Z,97.60
2019-02-25T22:24:54.481Z,98.70
2019-02-25T22:29:01.751Z,99.20
2019-02-25T22:33:12.738Z,98.40
2019-02-25T22:37:16.758Z,99.20
2019-02-25T22:41:22.935Z,99.20
2019-02-25T22:45:31.454Z,99.00
2019-02-25T22:49:36.708Z,99.10
2019-02-25T22:53:42.145Z,99.00
2019-02-25T22:57:50.952Z,99.60
2019-02-25T23:01:55.013Z,99.90
2019-02-25T23:06:00.438Z,99.90
2019-02-25T23:10:08.410Z,99.90
2019-02-25T23:14:14.036Z,99.90
2019-02-25T23:18:28.032Z,99.90
2019-02-25T23:22:34.937Z,99.90
2019-02-25T23:26:41.078Z,99.90
2019-02-25T23:30:46.584Z,99.90
2019-02-25T23:34:52.759Z,99.90
2019-02-25T23:38:59.565Z,99.90
2019-02-25T23:43:07.460Z,99.90
2019-02-25T23:47:13.451Z,99.90
2019-02-25T23:51:19.563Z,99.90
2019-02-25T23:55:27.947Z,99.90
2019-02-25T23:59:34.067Z,99.90
